Assumption, Illinois
Current Conditions -  °F | °C
As of 7:35 PM on Thursday 27 Nov 2014 (Local Time) from KTAZ Reporting Station
Clear Clear  
Wind Chill: 16°   Ceiling: Unl
Heat Index: 16°   Visibility: 10mi
Dew Point: 12°   Wind: 3mph
Humidity: 86%   Direction: 40°NE
Pressure: 30.46"   Gusts: NA
Location:  39.52°N, 89.05°W
Report Text: KTAZ 280135Z AUTO 04003KT 10SM CLR M09/M11 A3046 RMK AO2
Loading
Personal Weather Stations






























Interactive Weather Map New forecast layout! Learn more

10-Day Weather Forecast

Advertisements
Track Severe Weather on mobile